createdAt,value
2018-05-09T00:00:34.103Z,4.53
2018-05-09T00:03:00.880Z,4.83
2018-05-09T00:05:27.726Z,4.60
2018-05-09T00:07:54.525Z,4.30
2018-05-09T00:10:21.462Z,4.80
2018-05-09T00:12:48.256Z,4.57
2018-05-09T00:15:15.835Z,4.50
2018-05-09T00:17:42.677Z,4.43
2018-05-09T00:20:09.527Z,4.43
2018-05-09T00:25:47.805Z,4.20
2018-05-09T00:28:14.632Z,4.33
2018-05-09T00:30:41.449Z,4.23
2018-05-09T00:33:08.200Z,4.10
2018-05-09T00:35:35.075Z,4.60
2018-05-09T00:38:01.842Z,4.77
2018-05-09T00:40:28.645Z,4.93
2018-05-09T00:42:56.244Z,5.63
2018-05-09T00:45:23.156Z,5.50
2018-05-09T00:47:50.732Z,5.60
2018-05-09T00:50:17.641Z,4.93
2018-05-09T00:52:44.425Z,5.20
2018-05-09T00:55:11.212Z,5.00
2018-05-09T00:57:37.972Z,4.93
2018-05-09T01:00:04.834Z,4.47
2018-05-09T01:02:32.461Z,5.03
2018-05-09T01:04:59.344Z,5.63
2018-05-09T01:07:27.667Z,4.60
2018-05-09T01:09:54.503Z,4.90
2018-05-09T01:12:21.382Z,4.93
2018-05-09T01:14:48.184Z,4.73
2018-05-09T01:20:31.480Z,4.73
2018-05-09T01:22:58.376Z,5.10
2018-05-09T01:28:49.554Z,5.23
2018-05-09T01:34:49.568Z,5.33
2018-05-09T01:37:16.324Z,4.90
2018-05-09T01:39:43.149Z,5.07
2018-05-09T01:42:09.958Z,5.33
2018-05-09T01:44:37.610Z,5.27
2018-05-09T01:47:05.965Z,5.23
2018-05-09T01:49:32.782Z,5.87
2018-05-09T01:51:59.631Z,5.97
2018-05-09T01:54:26.568Z,6.17
2018-05-09T01:56:53.377Z,6.40
2018-05-09T01:59:20.228Z,5.93
2018-05-09T02:01:47.883Z,6.33
2018-05-09T02:04:14.740Z,5.70
2018-05-09T02:06:42.316Z,5.87
2018-05-09T02:09:09.871Z,6.40
2018-05-09T02:11:37.341Z,6.30
2018-05-09T02:14:04.904Z,6.77
2018-05-09T02:16:31.764Z,6.20
2018-05-09T02:18:58.528Z,6.90
2018-05-09T02:21:25.324Z,6.93
2018-05-09T02:23:52.829Z,7.00
2018-05-09T02:26:19.589Z,7.27
2018-05-09T02:28:46.533Z,7.27
2018-05-09T02:31:13.708Z,6.93
2018-05-09T02:33:40.537Z,6.37
2018-05-09T02:36:09.001Z,7.70
2018-05-09T02:38:35.961Z,7.73
2018-05-09T02:41:03.014Z,6.40
2018-05-09T02:43:29.960Z,7.47
2018-05-09T02:45:57.019Z,6.97
2018-05-09T02:48:23.959Z,6.73
2018-05-09T02:50:50.902Z,7.07
2018-05-09T02:53:17.732Z,7.03
2018-05-09T02:55:44.800Z,8.37
2018-05-09T02:58:11.856Z,8.43
2018-05-09T03:00:38.795Z,8.07
2018-05-09T03:03:05.781Z,7.77
2018-05-09T03:05:33.714Z,7.83
2018-05-09T03:08:00.700Z,8.40
2018-05-09T03:10:27.711Z,8.60
2018-05-09T03:12:54.770Z,8.70
2018-05-09T03:15:22.022Z,8.70
2018-05-09T03:17:49.070Z,7.70
2018-05-09T03:20:16.132Z,7.73
2018-05-09T03:22:43.178Z,7.80
2018-05-09T03:25:10.212Z,9.60
2018-05-09T03:27:37.258Z,8.63
2018-05-09T03:30:04.318Z,8.57
2018-05-09T03:32:31.368Z,8.63
2018-05-09T03:34:58.309Z,8.03
2018-05-09T03:37:25.270Z,8.37
2018-05-09T03:39:52.301Z,7.87
2018-05-09T03:42:19.260Z,8.60
2018-05-09T03:44:46.330Z,8.23
2018-05-09T03:47:14.078Z,8.40
2018-05-09T03:49:41.017Z,8.00
2018-05-09T03:52:08.010Z,9.47
2018-05-09T03:54:35.651Z,8.93
2018-05-09T03:57:02.435Z,8.73
2018-05-09T03:59:29.180Z,7.87
2018-05-09T04:02:08.141Z,7.90
2018-05-09T04:04:47.176Z,7.50
2018-05-09T04:07:26.056Z,7.63
2018-05-09T04:09:55.972Z,7.37
2018-05-09T04:12:23.527Z,7.47
2018-05-09T04:14:51.202Z,7.53
2018-05-09T04:17:18.048Z,7.07
2018-05-09T04:19:44.893Z,8.80
2018-05-09T04:22:11.719Z,8.53
2018-05-09T04:24:39.351Z,8.20
2018-05-09T04:27:06.140Z,7.67
2018-05-09T04:29:32.975Z,7.47
2018-05-09T04:32:00.489Z,7.27
2018-05-09T04:34:27.438Z,7.67
2018-05-09T04:36:54.360Z,7.57
2018-05-09T04:39:21.228Z,7.73
2018-05-09T04:41:48.154Z,7.43
2018-05-09T04:44:15.043Z,7.80
2018-05-09T04:46:42.597Z,7.30
2018-05-09T04:49:09.458Z,8.20
2018-05-09T04:51:36.300Z,7.40
2018-05-09T04:54:03.943Z,8.13
2018-05-09T04:56:30.836Z,7.73
2018-05-09T04:58:57.736Z,7.87
2018-05-09T05:01:24.525Z,8.07
2018-05-09T05:03:51.324Z,7.67
2018-05-09T05:06:18.208Z,7.93
2018-05-09T05:08:45.153Z,7.43
2018-05-09T05:11:21.664Z,7.20
2018-05-09T05:13:48.484Z,8.10
2018-05-09T05:16:15.280Z,7.73
2018-05-09T05:18:42.122Z,6.87
2018-05-09T05:21:10.396Z,7.30
2018-05-09T05:23:41.163Z,7.27
2018-05-09T05:26:10.228Z,8.23
2018-05-09T05:28:37.997Z,7.90
2018-05-09T05:31:04.957Z,7.60
2018-05-09T05:33:31.787Z,7.83
2018-05-09T05:35:58.724Z,8.07
2018-05-09T05:38:25.683Z,8.40
2018-05-09T05:40:52.733Z,7.67
2018-05-09T05:43:21.965Z,7.53
2018-05-09T05:45:49.545Z,7.90
2018-05-09T05:48:16.375Z,8.17
2018-05-09T05:50:43.310Z,8.50
2018-05-09T05:53:10.814Z,9.43
2018-05-09T05:55:52.508Z,10.20
2018-05-09T05:58:19.285Z,11.47
2018-05-09T06:00:46.079Z,9.97
2018-05-09T06:03:12.924Z,10.13
2018-05-09T06:05:39.735Z,10.80
2018-05-09T06:08:07.323Z,10.50
2018-05-09T06:10:34.105Z,10.17
2018-05-09T06:13:00.986Z,14.47
2018-05-09T06:15:28.533Z,16.77
2018-05-09T06:17:55.289Z,14.90
2018-05-09T06:20:22.206Z,13.60
2018-05-09T06:22:49.001Z,14.03
2018-05-09T06:25:16.835Z,13.80
2018-05-09T06:27:43.620Z,14.60
2018-05-09T06:30:10.432Z,12.87
2018-05-09T06:32:37.223Z,13.87
2018-05-09T06:35:04.004Z,12.30
2018-05-09T06:37:30.920Z,14.93
2018-05-09T06:39:57.686Z,14.67
2018-05-09T06:42:24.564Z,12.97
2018-05-09T06:44:52.108Z,13.00
2018-05-09T06:47:18.973Z,14.23
2018-05-09T06:49:46.611Z,12.17
2018-05-09T06:52:13.542Z,14.27
2018-05-09T06:54:40.251Z,12.47
2018-05-09T06:57:07.075Z,12.00
2018-05-09T06:59:34.671Z,13.80
2018-05-09T07:02:01.508Z,12.83
2018-05-09T07:04:28.423Z,12.20
2018-05-09T07:06:55.957Z,11.87
2018-05-09T07:09:22.868Z,12.43
2018-05-09T07:11:49.692Z,11.03
2018-05-09T07:17:00.778Z,10.63
2018-05-09T07:19:28.300Z,13.03
2018-05-09T07:21:55.161Z,12.07
2018-05-09T07:24:22.001Z,13.10
2018-05-09T07:26:48.943Z,12.63
2018-05-09T07:29:16.591Z,13.30
2018-05-09T07:31:43.498Z,14.80
2018-05-09T07:34:10.377Z,14.90
2018-05-09T07:36:37.277Z,15.73
2018-05-09T07:39:04.922Z,16.97
2018-05-09T07:41:31.756Z,18.23
2018-05-09T07:43:58.618Z,17.63
2018-05-09T07:46:26.128Z,17.13
2018-05-09T07:48:53.034Z,17.47
2018-05-09T07:51:20.732Z,16.93
2018-05-09T07:53:47.614Z,19.87
2018-05-09T07:56:14.391Z,18.83
2018-05-09T07:58:41.996Z,19.07
2018-05-09T08:01:10.149Z,16.83
2018-05-09T08:03:36.999Z,20.53
2018-05-09T08:06:03.896Z,17.10
2018-05-09T08:08:30.735Z,18.47
2018-05-09T08:10:58.430Z,17.13
2018-05-09T08:13:26.001Z,17.17
2018-05-09T08:15:52.734Z,18.20
2018-05-09T08:18:20.301Z,17.23
2018-05-09T08:20:47.110Z,17.33
2018-05-09T08:23:13.859Z,16.80
2018-05-09T08:25:40.620Z,15.30
2018-05-09T08:28:08.234Z,17.10
2018-05-09T08:30:35.408Z,18.00
2018-05-09T08:33:02.181Z,15.67
2018-05-09T08:35:29.817Z,17.80
2018-05-09T08:37:56.630Z,16.63
2018-05-09T08:40:23.632Z,15.50
2018-05-09T08:42:51.113Z,13.60
2018-05-09T08:45:18.022Z,13.30
2018-05-09T08:47:44.850Z,14.13
2018-05-09T08:50:11.713Z,14.63
2018-05-09T08:52:38.589Z,14.13
2018-05-09T08:55:05.419Z,15.47
2018-05-09T08:57:33.005Z,17.33
2018-05-09T08:59:59.929Z,15.33
2018-05-09T09:02:26.814Z,17.83
2018-05-09T09:04:53.636Z,14.60
2018-05-09T09:07:20.448Z,17.53
2018-05-09T09:09:47.271Z,16.63
2018-05-09T09:12:14.159Z,15.47
2018-05-09T09:17:45.389Z,13.00
2018-05-09T09:20:12.138Z,12.17
2018-05-09T09:22:38.949Z,17.03
2018-05-09T09:25:05.843Z,15.20
2018-05-09T09:27:32.631Z,18.53
2018-05-09T09:29:59.455Z,17.40
2018-05-09T09:32:26.301Z,15.73
2018-05-09T09:34:53.845Z,15.30
2018-05-09T09:37:21.459Z,15.00
2018-05-09T09:43:15.769Z,12.70
2018-05-09T09:48:58.376Z,15.57
2018-05-09T09:51:25.897Z,15.70
2018-05-09T09:56:57.824Z,12.27
2018-05-09T09:59:24.628Z,13.30
2018-05-09T10:01:51.511Z,13.03
2018-05-09T10:04:19.120Z,12.67
2018-05-09T10:06:45.958Z,14.07
2018-05-09T10:09:12.808Z,15.03
2018-05-09T10:11:39.625Z,15.00
2018-05-09T10:14:07.213Z,13.30
2018-05-09T10:16:34.022Z,16.43
2018-05-09T10:19:00.885Z,13.70
2018-05-09T10:21:27.630Z,12.43
2018-05-09T10:23:54.536Z,12.27
2018-05-09T10:26:22.141Z,11.53
2018-05-09T10:28:49.682Z,13.97
2018-05-09T10:31:16.596Z,10.67
2018-05-09T10:33:43.413Z,11.10
2018-05-09T10:36:11.589Z,11.00
2018-05-09T10:38:38.506Z,11.73
2018-05-09T10:41:05.227Z,12.73
2018-05-09T10:43:32.837Z,10.47
2018-05-09T10:45:59.769Z,9.67
2018-05-09T10:48:26.581Z,10.43
2018-05-09T10:50:53.487Z,11.43
2018-05-09T10:53:20.230Z,10.67
2018-05-09T10:55:46.961Z,10.53
2018-05-09T11:01:43.828Z,11.40
2018-05-09T11:04:10.559Z,10.80
2018-05-09T11:06:37.410Z,10.27
2018-05-09T11:09:05.359Z,8.80
2018-05-09T11:11:32.233Z,9.50
2018-05-09T11:13:58.985Z,9.30
2018-05-09T11:16:25.868Z,9.27
2018-05-09T11:18:53.463Z,11.10
2018-05-09T11:21:20.781Z,10.63
2018-05-09T11:23:48.487Z,8.90
2018-05-09T11:26:15.273Z,8.83
2018-05-09T11:28:42.098Z,12.20
2018-05-09T11:31:09.023Z,11.10
2018-05-09T11:33:35.908Z,10.93
2018-05-09T11:36:02.770Z,11.57
2018-05-09T11:38:30.333Z,11.33
2018-05-09T11:40:57.894Z,11.93
2018-05-09T11:43:25.464Z,17.40
2018-05-09T11:45:53.009Z,14.27
2018-05-09T11:48:20.601Z,12.27
2018-05-09T11:50:47.512Z,14.80
2018-05-09T11:53:14.482Z,13.33
2018-05-09T11:55:41.239Z,18.13
2018-05-09T11:58:08.024Z,15.87
2018-05-09T12:00:34.811Z,14.73
2018-05-09T12:03:01.637Z,14.53
2018-05-09T12:05:29.197Z,13.23
2018-05-09T12:07:56.787Z,18.30
2018-05-09T12:10:24.386Z,17.37
2018-05-09T12:12:51.155Z,14.97
2018-05-09T12:15:50.709Z,14.07
2018-05-09T12:18:17.644Z,14.40
2018-05-09T12:20:45.176Z,13.70
2018-05-09T12:23:12.022Z,15.63
2018-05-09T12:25:38.869Z,13.57
2018-05-09T12:28:05.624Z,15.73
2018-05-09T12:30:33.206Z,13.70
2018-05-09T12:33:00.057Z,12.80
2018-05-09T12:35:27.267Z,11.23
2018-05-09T12:37:54.116Z,13.33
2018-05-09T12:40:21.084Z,11.37
2018-05-09T12:42:48.634Z,12.47
2018-05-09T12:45:15.418Z,12.70
2018-05-09T12:47:43.017Z,12.00
2018-05-09T12:50:09.862Z,12.23
2018-05-09T12:52:36.744Z,11.10
2018-05-09T12:55:04.423Z,11.40
2018-05-09T12:57:31.240Z,10.53
2018-05-09T12:59:58.876Z,10.63
2018-05-09T13:02:25.629Z,10.00
2018-05-09T13:04:52.401Z,10.60
2018-05-09T13:07:19.289Z,10.50
2018-05-09T13:09:46.149Z,9.70
2018-05-09T13:12:12.948Z,9.27
2018-05-09T13:15:13.120Z,9.97
2018-05-09T13:17:39.888Z,10.23
2018-05-09T13:20:06.680Z,15.90
2018-05-09T13:22:33.572Z,13.83
2018-05-09T13:25:00.393Z,13.43
2018-05-09T13:27:27.235Z,12.17
2018-05-09T13:29:54.032Z,11.10
2018-05-09T13:32:21.640Z,12.50
2018-05-09T13:34:48.405Z,11.60
2018-05-09T13:37:15.204Z,11.67
2018-05-09T13:39:42.094Z,8.90
2018-05-09T13:42:09.043Z,9.80
2018-05-09T13:44:35.906Z,11.60
2018-05-09T13:47:02.725Z,10.07
2018-05-09T13:49:29.565Z,8.37
2018-05-09T13:51:56.414Z,8.03
2018-05-09T13:54:23.524Z,7.27
2018-05-09T13:56:50.391Z,8.30
2018-05-09T13:59:17.154Z,7.37
2018-05-09T14:01:43.942Z,8.70
2018-05-09T14:04:11.516Z,8.00
2018-05-09T14:06:38.451Z,9.97
2018-05-09T14:09:06.075Z,10.00
2018-05-09T14:11:32.865Z,8.67
2018-05-09T14:13:59.700Z,8.43
2018-05-09T14:16:41.619Z,8.47
2018-05-09T14:19:08.429Z,8.00
2018-05-09T14:21:35.268Z,7.93
2018-05-09T14:24:02.139Z,7.00
2018-05-09T14:26:29.083Z,8.40
2018-05-09T14:28:55.946Z,7.07
2018-05-09T14:31:22.795Z,7.20
2018-05-09T14:33:49.680Z,6.87
2018-05-09T14:36:16.487Z,7.80
2018-05-09T14:38:43.303Z,7.87
2018-05-09T14:41:11.997Z,8.70
2018-05-09T14:43:38.872Z,7.37
2018-05-09T14:46:05.634Z,7.90
2018-05-09T14:48:32.443Z,8.30
2018-05-09T14:50:59.275Z,8.47
2018-05-09T14:53:26.089Z,7.70
2018-05-09T14:55:52.876Z,8.13
2018-05-09T14:58:19.757Z,8.33
2018-05-09T15:00:46.581Z,7.93
2018-05-09T15:03:13.379Z,9.13
2018-05-09T15:05:40.972Z,8.77
2018-05-09T15:08:08.597Z,7.33
2018-05-09T15:10:35.628Z,7.03
2018-05-09T15:13:02.470Z,6.07
2018-05-09T15:16:02.409Z,5.90
2018-05-09T15:18:29.277Z,7.67
2018-05-09T15:20:57.089Z,6.53
2018-05-09T15:23:23.927Z,6.20
2018-05-09T15:25:50.765Z,5.77
2018-05-09T15:28:17.543Z,6.70
2018-05-09T15:30:44.360Z,6.10
2018-05-09T15:33:11.211Z,5.70
2018-05-09T15:39:05.949Z,5.93
2018-05-09T15:45:01.527Z,4.97
2018-05-09T15:50:47.236Z,4.90
2018-05-09T15:53:14.865Z,4.47
2018-05-09T15:55:41.751Z,4.73
2018-05-09T15:58:08.603Z,5.00
2018-05-09T16:00:35.717Z,4.53
2018-05-09T16:03:02.578Z,5.27
2018-05-09T16:05:30.091Z,5.57
2018-05-09T16:07:57.733Z,5.40
2018-05-09T16:10:24.694Z,6.20
2018-05-09T16:12:51.567Z,5.67
2018-05-09T16:15:52.131Z,6.03
2018-05-09T16:18:19.731Z,6.43
2018-05-09T16:20:46.612Z,7.83
2018-05-09T16:23:13.436Z,7.30
2018-05-09T16:25:40.278Z,7.27
2018-05-09T16:28:07.124Z,5.73
2018-05-09T16:30:34.081Z,5.50
2018-05-09T16:33:01.051Z,5.43
2018-05-09T16:35:27.930Z,6.20
2018-05-09T16:37:54.710Z,7.00
2018-05-09T16:40:21.533Z,6.57
2018-05-09T16:42:48.421Z,7.10
2018-05-09T16:45:15.245Z,6.67
2018-05-09T16:47:42.109Z,6.10
2018-05-09T16:50:08.974Z,5.57
2018-05-09T16:52:36.518Z,5.33
2018-05-09T16:55:03.404Z,5.43
2018-05-09T16:57:30.216Z,5.33
2018-05-09T16:59:57.040Z,5.23
2018-05-09T17:02:23.923Z,6.10
2018-05-09T17:04:51.491Z,5.50
2018-05-09T17:07:20.071Z,5.43
2018-05-09T17:10:01.737Z,5.53
2018-05-09T17:12:28.554Z,5.07
2018-05-09T17:17:55.683Z,5.70
2018-05-09T17:20:23.378Z,5.10
2018-05-09T17:22:50.177Z,5.40
2018-05-09T17:25:17.077Z,5.47
2018-05-09T17:27:43.872Z,5.30
2018-05-09T17:30:10.666Z,5.37
2018-05-09T17:32:37.543Z,5.07
2018-05-09T17:35:04.388Z,5.33
2018-05-09T17:37:31.170Z,4.63
2018-05-09T17:39:58.699Z,5.10
2018-05-09T17:42:25.600Z,4.63
2018-05-09T17:44:52.577Z,5.07
2018-05-09T17:47:19.631Z,5.10
2018-05-09T17:49:46.575Z,5.13
2018-05-09T17:52:13.426Z,5.47
2018-05-09T17:54:40.283Z,4.53
2018-05-09T17:57:07.211Z,4.27
2018-05-09T17:59:34.120Z,4.80
2018-05-09T18:02:00.979Z,4.27
2018-05-09T18:04:27.849Z,4.80
2018-05-09T18:06:54.745Z,4.70
2018-05-09T18:09:21.707Z,4.93
2018-05-09T18:11:48.568Z,5.30
2018-05-09T18:14:28.954Z,4.83
2018-05-09T18:17:36.701Z,5.07
2018-05-09T18:20:04.313Z,5.10
2018-05-09T18:22:31.003Z,5.27
2018-05-09T18:24:58.564Z,5.80
2018-05-09T18:27:26.104Z,5.07
2018-05-09T18:29:53.755Z,4.93
2018-05-09T18:32:20.605Z,5.47
2018-05-09T18:34:47.563Z,5.50
2018-05-09T18:37:14.414Z,6.77
2018-05-09T18:39:41.276Z,6.40
2018-05-09T18:42:08.377Z,8.20
2018-05-09T18:44:35.223Z,7.20
2018-05-09T18:47:02.167Z,7.10
2018-05-09T18:49:29.071Z,5.67
2018-05-09T18:51:56.506Z,6.80
2018-05-09T18:54:23.316Z,6.50
2018-05-09T18:56:50.164Z,5.93
2018-05-09T18:59:17.113Z,5.70
2018-05-09T19:01:44.094Z,6.50
2018-05-09T19:04:12.440Z,6.00
2018-05-09T19:06:39.242Z,5.67
2018-05-09T19:09:06.091Z,5.50
2018-05-09T19:11:32.869Z,5.73
2018-05-09T19:13:59.827Z,5.33
2018-05-09T19:19:37.005Z,4.97
2018-05-09T19:22:03.956Z,4.97
2018-05-09T19:24:30.801Z,5.07
2018-05-09T19:26:57.575Z,5.00
2018-05-09T19:29:24.419Z,5.10
2018-05-09T19:31:58.119Z,5.17
2018-05-09T19:34:24.928Z,5.00
2018-05-09T19:36:51.912Z,5.27
2018-05-09T19:39:18.706Z,4.97
2018-05-09T19:41:46.658Z,5.67
2018-05-09T19:44:13.568Z,5.10
2018-05-09T19:46:40.780Z,5.70
2018-05-09T19:49:07.660Z,4.87
2018-05-09T19:51:34.485Z,5.83
2018-05-09T19:54:01.870Z,5.50
2018-05-09T19:56:28.740Z,4.90
2018-05-09T19:58:56.797Z,5.30
2018-05-09T20:01:23.839Z,5.47
2018-05-09T20:03:50.771Z,5.17
2018-05-09T20:06:17.730Z,5.30
2018-05-09T20:08:44.673Z,5.60
2018-05-09T20:11:13.878Z,5.70
2018-05-09T20:13:41.453Z,4.87
2018-05-09T20:19:13.948Z,5.30
2018-05-09T20:21:40.998Z,5.17
2018-05-09T20:24:07.776Z,5.30
2018-05-09T20:27:06.600Z,5.13
2018-05-09T20:29:33.689Z,5.60
2018-05-09T20:32:12.732Z,5.63
2018-05-09T20:34:39.552Z,5.83
2018-05-09T20:37:06.396Z,5.63
2018-05-09T20:39:33.445Z,5.13
2018-05-09T20:42:00.412Z,5.13
2018-05-09T20:44:27.443Z,5.13
2018-05-09T20:46:54.395Z,5.47
2018-05-09T20:49:21.442Z,5.20
2018-05-09T20:51:51.473Z,5.37
2018-05-09T20:54:19.788Z,5.27
2018-05-09T20:56:47.606Z,5.23
2018-05-09T20:59:14.862Z,5.10
2018-05-09T21:01:54.814Z,5.90
2018-05-09T21:04:21.767Z,4.90
2018-05-09T21:06:48.615Z,5.20
2018-05-09T21:09:15.752Z,4.80
2018-05-09T21:11:55.379Z,4.43
2018-05-09T21:14:32.375Z,4.80
2018-05-09T21:17:15.645Z,4.60
2018-05-09T21:19:43.383Z,4.80
2018-05-09T21:22:10.336Z,4.27
2018-05-09T21:24:37.380Z,4.50
2018-05-09T21:27:04.310Z,4.30
2018-05-09T21:29:31.169Z,4.50
2018-05-09T21:31:58.015Z,4.40
2018-05-09T21:34:25.791Z,4.00
2018-05-09T21:36:52.839Z,4.33
2018-05-09T21:39:19.889Z,4.57
2018-05-09T21:41:46.725Z,4.40
2018-05-09T21:44:13.465Z,4.23
2018-05-09T21:46:40.311Z,4.10
2018-05-09T21:49:07.234Z,4.30
2018-05-09T21:51:34.843Z,4.20
2018-05-09T21:54:02.501Z,3.90
2018-05-09T21:56:31.026Z,4.40
2018-05-09T21:58:58.122Z,4.53
2018-05-09T22:01:40.634Z,4.27
2018-05-09T22:04:08.205Z,4.00
2018-05-09T22:06:35.039Z,4.30
2018-05-09T22:09:02.124Z,4.50
2018-05-09T22:11:29.853Z,4.17
2018-05-09T22:13:56.804Z,4.07
2018-05-09T22:16:23.861Z,4.30
2018-05-09T22:18:50.866Z,3.90
2018-05-09T22:21:18.574Z,4.07
2018-05-09T22:23:45.409Z,4.57
2018-05-09T22:26:13.956Z,4.23
2018-05-09T22:28:40.945Z,3.97
2018-05-09T22:31:07.996Z,4.00
2018-05-09T22:36:59.860Z,4.20
2018-05-09T22:39:26.804Z,3.93
2018-05-09T22:42:37.567Z,3.33
2018-05-09T22:45:04.518Z,3.80
2018-05-09T22:50:34.969Z,3.83
2018-05-09T22:53:01.958Z,4.13
2018-05-09T22:55:29.684Z,4.03
2018-05-09T22:57:56.640Z,4.07
2018-05-09T23:00:23.680Z,4.23
2018-05-09T23:02:50.737Z,4.27
2018-05-09T23:05:17.551Z,4.10
2018-05-09T23:07:44.519Z,5.00
2018-05-09T23:10:11.532Z,4.20
2018-05-09T23:12:38.429Z,4.70
2018-05-09T23:15:05.992Z,4.53
2018-05-09T23:17:32.697Z,4.03
2018-05-09T23:19:59.671Z,4.10
2018-05-09T23:22:26.490Z,4.10
2018-05-09T23:24:53.459Z,4.57
2018-05-09T23:27:20.407Z,4.47
2018-05-09T23:29:47.363Z,4.53
2018-05-09T23:35:07.665Z,4.70
2018-05-09T23:37:34.617Z,4.53
2018-05-09T23:40:01.460Z,4.30
2018-05-09T23:42:28.305Z,4.13
2018-05-09T23:44:55.150Z,4.23
2018-05-09T23:47:22.007Z,4.60
2018-05-09T23:49:48.835Z,4.60
2018-05-09T23:52:15.831Z,4.17
2018-05-09T23:54:42.843Z,4.80
2018-05-09T23:57:09.790Z,5.00
2018-05-09T23:59:36.839Z,4.43
